Hauptseite
METAR-TAF:

METAR-TAF

Flughäfen :

Cranfield Airport

Cranfield, England

Breite: 52-04N, Länge: 000-37W, Höhe: 111 m

Beobachtung

Neuester Wetterbericht von vor 46 Minuten, um 11:20 UTC
Wind 6 kt aus unterschiedlichen Richtungen
Temperatur 21°C
Luftfeuchtigkeit 53%
Luftdruck 1035 hPa
Sichtweite 10 km oder mehr
Aufgelockert bewölkt in der Höhe von 4200 ft

METAR: EGTC 271120Z VRB06KT 9999 SCT042 21/11 Q1035

Zeit: 13:06 (12:06 UTC)

Prognose

Neuester Wetterbericht von vor 3 Stunden und 33 Minuten, um 08:33 UTC
Gültige Prognose vom 27 um 09 UTC bis 27 um 15 UTC
Wind 2 kt aus unterschiedlichen Richtungen
Sichtweite 10 km oder mehr
Leicht bewölkt in der Höhe von 4000 ft

TAF: EGTC 270833Z 2709/2715 VRB02KT 9999 FEW040

Wetterbeobachtungen und Prognosen von mehr als 4000 Flughäfen (METAR und TAF Bericht).

Die verfügbaren Stationen werden durch gelbe und rote Markierungen auf der Karte dargestellt.

Führen Sie die Maus auf sie, um den Namen der Station zu sehen.

Darauf klicken, um die Beobachtung von Wetterbeobachtungen und Prognosen zu sehen.

Um die Karte zu ändern : klicken Sie auf den grünen Tasten mit einem schwarzen Kreuz Zum Vergrößern, auf den grünen Button mit einem Gedankenstrich zu verkleinern, oder auf die grünen Pfeile für benachbarte Karten.


METAR-TAF: